sensor_id;sensor_type;location;lat;lon;timestamp;temperature;humidity
11043;DHT22;5574;48.786;10.120;2023-04-15T00:00:38;6.00;99.90
11043;DHT22;5574;48.786;10.120;2023-04-15T00:03:05;5.90;99.90
11043;DHT22;5574;48.786;10.120;2023-04-15T00:05:33;5.90;99.90
11043;DHT22;5574;48.786;10.120;2023-04-15T00:08:00;5.90;99.90
11043;DHT22;5574;48.786;10.120;2023-04-15T00:10:27;5.90;99.90
11043;DHT22;5574;48.786;10.120;2023-04-15T00:12:53;5.90;99.90
11043;DHT22;5574;48.786;10.120;2023-04-15T00:15:21;5.90;99.90
11043;DHT22;5574;48.786;10.120;2023-04-15T00:17:49;5.90;99.90
11043;DHT22;5574;48.786;10.120;2023-04-15T00:20:16;6.00;99.90
11043;DHT22;5574;48.786;10.120;2023-04-15T00:22:43;5.90;99.90
11043;DHT22;5574;48.786;10.120;2023-04-15T00:25:09;5.90;99.90
11043;DHT22;5574;48.786;10.120;2023-04-15T00:27:36;5.80;99.90
11043;DHT22;5574;48.786;10.120;2023-04-15T00:30:04;5.80;99.90
11043;DHT22;5574;48.786;10.120;2023-04-15T00:32:32;5.90;99.90
11043;DHT22;5574;48.786;10.120;2023-04-15T00:34:59;5.90;99.90
11043;DHT22;5574;48.786;10.120;2023-04-15T00:37:26;5.90;99.90
11043;DHT22;5574;48.786;10.120;2023-04-15T00:39:53;5.90;99.90
11043;DHT22;5574;48.786;10.120;2023-04-15T00:42:20;5.80;99.90
11043;DHT22;5574;48.786;10.120;2023-04-15T00:44:47;5.80;99.90
11043;DHT22;5574;48.786;10.120;2023-04-15T00:47:15;5.80;99.90
11043;DHT22;5574;48.786;10.120;2023-04-15T00:49:43;5.80;99.90
11043;DHT22;5574;48.786;10.120;2023-04-15T00:52:09;5.70;99.90
11043;DHT22;5574;48.786;10.120;2023-04-15T00:54:36;5.70;99.90
11043;DHT22;5574;48.786;10.120;2023-04-15T00:57:04;5.70;99.90
11043;DHT22;5574;48.786;10.120;2023-04-15T00:59:32;5.70;99.90
11043;DHT22;5574;48.786;10.120;2023-04-15T01:01:59;5.70;99.90
11043;DHT22;5574;48.786;10.120;2023-04-15T01:04:26;5.60;99.90
11043;DHT22;5574;48.786;10.120;2023-04-15T01:06:54;5.60;99.90
11043;DHT22;5574;48.786;10.120;2023-04-15T01:09:21;5.50;99.90
11043;DHT22;5574;48.786;10.120;2023-04-15T01:11:48;5.50;99.90
11043;DHT22;5574;48.786;10.120;2023-04-15T01:14:15;5.50;99.90
11043;DHT22;5574;48.786;10.120;2023-04-15T01:16:42;5.50;99.90
11043;DHT22;5574;48.786;10.120;2023-04-15T01:19:09;5.50;99.90
11043;DHT22;5574;48.786;10.120;2023-04-15T01:21:36;5.50;99.90
11043;DHT22;5574;48.786;10.120;2023-04-15T01:24:09;5.50;99.90
11043;DHT22;5574;48.786;10.120;2023-04-15T01:26:37;5.50;99.90
11043;DHT22;5574;48.786;10.120;2023-04-15T01:29:04;5.40;99.90
11043;DHT22;5574;48.786;10.120;2023-04-15T01:31:33;5.40;99.90
11043;DHT22;5574;48.786;10.120;2023-04-15T01:34:00;5.40;99.90
11043;DHT22;5574;48.786;10.120;2023-04-15T01:36:27;5.40;99.90
11043;DHT22;5574;48.786;10.120;2023-04-15T01:38:54;5.40;99.90
11043;DHT22;5574;48.786;10.120;2023-04-15T01:41:24;5.40;99.90
11043;DHT22;5574;48.786;10.120;2023-04-15T01:43:52;5.40;99.90
11043;DHT22;5574;48.786;10.120;2023-04-15T01:46:19;5.30;99.90
11043;DHT22;5574;48.786;10.120;2023-04-15T01:48:46;5.30;99.90
11043;DHT22;5574;48.786;10.120;2023-04-15T01:51:13;5.30;99.90
11043;DHT22;5574;48.786;10.120;2023-04-15T01:53:39;5.20;99.90
11043;DHT22;5574;48.786;10.120;2023-04-15T01:56:06;5.20;99.90
11043;DHT22;5574;48.786;10.120;2023-04-15T01:58:33;5.30;99.90
11043;DHT22;5574;48.786;10.120;2023-04-15T02:01:01;5.30;99.90
11043;DHT22;5574;48.786;10.120;2023-04-15T02:03:28;5.30;99.90
11043;DHT22;5574;48.786;10.120;2023-04-15T02:05:55;5.30;99.90
11043;DHT22;5574;48.786;10.120;2023-04-15T02:08:22;5.30;99.90
11043;DHT22;5574;48.786;10.120;2023-04-15T02:10:48;5.30;99.90
11043;DHT22;5574;48.786;10.120;2023-04-15T02:13:15;5.30;99.90
11043;DHT22;5574;48.786;10.120;2023-04-15T02:15:46;5.40;99.90
11043;DHT22;5574;48.786;10.120;2023-04-15T02:18:14;5.40;99.90
11043;DHT22;5574;48.786;10.120;2023-04-15T02:20:41;5.30;99.90
11043;DHT22;5574;48.786;10.120;2023-04-15T02:23:08;5.40;99.90
11043;DHT22;5574;48.786;10.120;2023-04-15T02:25:35;5.40;99.90
11043;DHT22;5574;48.786;10.120;2023-04-15T02:28:03;5.40;99.90
11043;DHT22;5574;48.786;10.120;2023-04-15T02:30:30;5.40;99.90
11043;DHT22;5574;48.786;10.120;2023-04-15T02:32:57;5.30;99.90
11043;DHT22;5574;48.786;10.120;2023-04-15T02:35:26;5.30;99.90
11043;DHT22;5574;48.786;10.120;2023-04-15T02:37:52;5.30;99.90
11043;DHT22;5574;48.786;10.120;2023-04-15T02:40:19;5.30;99.90
11043;DHT22;5574;48.786;10.120;2023-04-15T02:42:46;5.30;99.90
11043;DHT22;5574;48.786;10.120;2023-04-15T02:45:13;5.20;99.90
11043;DHT22;5574;48.786;10.120;2023-04-15T02:47:40;5.20;99.90
11043;DHT22;5574;48.786;10.120;2023-04-15T02:50:10;5.20;99.90
11043;DHT22;5574;48.786;10.120;2023-04-15T02:52:39;5.20;99.90
11043;DHT22;5574;48.786;10.120;2023-04-15T02:55:07;5.20;99.90
11043;DHT22;5574;48.786;10.120;2023-04-15T02:57:34;5.20;99.90
11043;DHT22;5574;48.786;10.120;2023-04-15T03:00:04;5.20;99.90
11043;DHT22;5574;48.786;10.120;2023-04-15T03:02:34;5.20;99.90
11043;DHT22;5574;48.786;10.120;2023-04-15T03:05:00;5.20;99.90
11043;DHT22;5574;48.786;10.120;2023-04-15T03:07:27;5.20;99.90
11043;DHT22;5574;48.786;10.120;2023-04-15T03:09:55;5.20;99.90
11043;DHT22;5574;48.786;10.120;2023-04-15T03:12:22;5.10;99.90
11043;DHT22;5574;48.786;10.120;2023-04-15T03:14:49;5.10;99.90
11043;DHT22;5574;48.786;10.120;2023-04-15T03:17:15;5.10;99.90
11043;DHT22;5574;48.786;10.120;2023-04-15T03:19:42;5.10;99.90
11043;DHT22;5574;48.786;10.120;2023-04-15T03:22:09;5.10;99.90
11043;DHT22;5574;48.786;10.120;2023-04-15T03:24:36;5.20;99.90
11043;DHT22;5574;48.786;10.120;2023-04-15T03:27:04;5.10;99.90
11043;DHT22;5574;48.786;10.120;2023-04-15T03:29:32;5.10;99.90
11043;DHT22;5574;48.786;10.120;2023-04-15T03:31:59;5.10;99.90
11043;DHT22;5574;48.786;10.120;2023-04-15T03:34:26;5.10;99.90
11043;DHT22;5574;48.786;10.120;2023-04-15T03:36:53;5.10;99.90
11043;DHT22;5574;48.786;10.120;2023-04-15T03:39:19;5.10;99.90
11043;DHT22;5574;48.786;10.120;2023-04-15T03:41:46;5.10;99.90
11043;DHT22;5574;48.786;10.120;2023-04-15T03:44:14;5.20;99.90
11043;DHT22;5574;48.786;10.120;2023-04-15T03:46:41;5.20;99.90
11043;DHT22;5574;48.786;10.120;2023-04-15T03:49:07;5.20;99.90
11043;DHT22;5574;48.786;10.120;2023-04-15T03:51:34;5.30;99.90
11043;DHT22;5574;48.786;10.120;2023-04-15T03:54:01;5.30;99.90
11043;DHT22;5574;48.786;10.120;2023-04-15T03:56:28;5.30;99.90
11043;DHT22;5574;48.786;10.120;2023-04-15T03:58:55;5.30;99.90
11043;DHT22;5574;48.786;10.120;2023-04-15T04:01:23;5.30;99.90
11043;DHT22;5574;48.786;10.120;2023-04-15T04:03:49;5.40;99.90
11043;DHT22;5574;48.786;10.120;2023-04-15T04:06:16;5.30;99.90
11043;DHT22;5574;48.786;10.120;2023-04-15T04:08:43;5.30;99.90
11043;DHT22;5574;48.786;10.120;2023-04-15T04:11:10;5.40;99.90
11043;DHT22;5574;48.786;10.120;2023-04-15T04:13:37;5.30;99.90
11043;DHT22;5574;48.786;10.120;2023-04-15T04:16:04;5.30;99.90
11043;DHT22;5574;48.786;10.120;2023-04-15T04:18:32;5.40;99.90
11043;DHT22;5574;48.786;10.120;2023-04-15T04:21:00;5.30;99.90
11043;DHT22;5574;48.786;10.120;2023-04-15T04:23:26;5.30;99.90
11043;DHT22;5574;48.786;10.120;2023-04-15T04:25:53;5.30;99.90
11043;DHT22;5574;48.786;10.120;2023-04-15T04:28:20;5.30;99.90
11043;DHT22;5574;48.786;10.120;2023-04-15T04:30:46;5.30;99.90
11043;DHT22;5574;48.786;10.120;2023-04-15T04:33:13;5.20;99.90
11043;DHT22;5574;48.786;10.120;2023-04-15T04:35:41;5.20;99.90
11043;DHT22;5574;48.786;10.120;2023-04-15T04:38:08;5.30;99.90
11043;DHT22;5574;48.786;10.120;2023-04-15T04:40:35;5.30;99.90
11043;DHT22;5574;48.786;10.120;2023-04-15T04:43:02;5.30;99.90
11043;DHT22;5574;48.786;10.120;2023-04-15T04:45:28;5.30;99.90
11043;DHT22;5574;48.786;10.120;2023-04-15T04:47:55;5.30;99.90
11043;DHT22;5574;48.786;10.120;2023-04-15T04:50:22;5.40;99.90
11043;DHT22;5574;48.786;10.120;2023-04-15T04:52:50;5.40;99.90
11043;DHT22;5574;48.786;10.120;2023-04-15T04:55:17;5.40;99.90
11043;DHT22;5574;48.786;10.120;2023-04-15T04:57:44;5.40;99.90
11043;DHT22;5574;48.786;10.120;2023-04-15T05:00:11;5.40;99.90
11043;DHT22;5574;48.786;10.120;2023-04-15T05:02:38;5.50;99.90
11043;DHT22;5574;48.786;10.120;2023-04-15T05:05:06;5.50;99.90
11043;DHT22;5574;48.786;10.120;2023-04-15T05:07:33;5.50;99.90
11043;DHT22;5574;48.786;10.120;2023-04-15T05:10:02;5.50;99.90
11043;DHT22;5574;48.786;10.120;2023-04-15T05:12:29;5.60;99.90
11043;DHT22;5574;48.786;10.120;2023-04-15T05:14:55;5.60;99.90
11043;DHT22;5574;48.786;10.120;2023-04-15T05:17:22;5.60;99.90
11043;DHT22;5574;48.786;10.120;2023-04-15T05:19:49;5.70;99.90
11043;DHT22;5574;48.786;10.120;2023-04-15T05:22:15;5.80;99.90
11043;DHT22;5574;48.786;10.120;2023-04-15T05:24:42;5.80;99.90
11043;DHT22;5574;48.786;10.120;2023-04-15T05:27:10;5.80;99.90
11043;DHT22;5574;48.786;10.120;2023-04-15T05:29:37;5.90;99.90
11043;DHT22;5574;48.786;10.120;2023-04-15T05:32:04;5.90;99.90
11043;DHT22;5574;48.786;10.120;2023-04-15T05:34:31;6.00;99.90
11043;DHT22;5574;48.786;10.120;2023-04-15T05:36:57;6.00;99.90
11043;DHT22;5574;48.786;10.120;2023-04-15T05:39:24;6.00;99.90
11043;DHT22;5574;48.786;10.120;2023-04-15T05:41:51;6.00;99.90
11043;DHT22;5574;48.786;10.120;2023-04-15T05:44:19;6.10;99.90
11043;DHT22;5574;48.786;10.120;2023-04-15T05:46:46;6.10;99.90
11043;DHT22;5574;48.786;10.120;2023-04-15T05:49:12;6.10;99.90
11043;DHT22;5574;48.786;10.120;2023-04-15T05:51:39;6.10;99.90
11043;DHT22;5574;48.786;10.120;2023-04-15T05:54:06;6.10;99.90
11043;DHT22;5574;48.786;10.120;2023-04-15T05:56:32;6.10;99.90
11043;DHT22;5574;48.786;10.120;2023-04-15T05:58:59;6.10;99.90
11043;DHT22;5574;48.786;10.120;2023-04-15T06:01:27;6.20;99.90
11043;DHT22;5574;48.786;10.120;2023-04-15T06:03:54;6.20;99.90
11043;DHT22;5574;48.786;10.120;2023-04-15T06:06:21;6.30;99.90
11043;DHT22;5574;48.786;10.120;2023-04-15T06:08:48;6.30;99.90
11043;DHT22;5574;48.786;10.120;2023-04-15T06:11:14;6.40;99.90
11043;DHT22;5574;48.786;10.120;2023-04-15T06:13:41;6.40;99.90
11043;DHT22;5574;48.786;10.120;2023-04-15T06:16:08;6.40;99.90
11043;DHT22;5574;48.786;10.120;2023-04-15T06:18:36;6.40;99.90
11043;DHT22;5574;48.786;10.120;2023-04-15T06:21:03;6.40;99.90
11043;DHT22;5574;48.786;10.120;2023-04-15T06:23:33;6.50;99.90
11043;DHT22;5574;48.786;10.120;2023-04-15T06:25:59;6.50;99.90
11043;DHT22;5574;48.786;10.120;2023-04-15T06:28:26;6.50;99.90
11043;DHT22;5574;48.786;10.120;2023-04-15T06:30:53;6.50;99.90
11043;DHT22;5574;48.786;10.120;2023-04-15T06:33:20;6.60;99.90
11043;DHT22;5574;48.786;10.120;2023-04-15T06:35:48;6.60;99.90
11043;DHT22;5574;48.786;10.120;2023-04-15T06:38:15;6.60;99.90
11043;DHT22;5574;48.786;10.120;2023-04-15T06:40:42;6.70;99.90
11043;DHT22;5574;48.786;10.120;2023-04-15T06:43:09;6.70;99.90
11043;DHT22;5574;48.786;10.120;2023-04-15T06:45:35;6.70;99.90
11043;DHT22;5574;48.786;10.120;2023-04-15T06:48:02;6.80;99.90
11043;DHT22;5574;48.786;10.120;2023-04-15T06:50:29;6.80;99.90
11043;DHT22;5574;48.786;10.120;2023-04-15T06:52:58;6.90;99.90
11043;DHT22;5574;48.786;10.120;2023-04-15T06:55:25;6.90;99.90
11043;DHT22;5574;48.786;10.120;2023-04-15T06:57:51;7.00;99.90
11043;DHT22;5574;48.786;10.120;2023-04-15T07:00:18;7.00;99.90
11043;DHT22;5574;48.786;10.120;2023-04-15T07:02:45;7.10;99.90
11043;DHT22;5574;48.786;10.120;2023-04-15T07:05:12;7.10;99.90
11043;DHT22;5574;48.786;10.120;2023-04-15T07:07:38;7.10;99.90
11043;DHT22;5574;48.786;10.120;2023-04-15T07:10:08;7.10;99.90
11043;DHT22;5574;48.786;10.120;2023-04-15T07:12:36;7.10;99.90
11043;DHT22;5574;48.786;10.120;2023-04-15T07:15:04;7.20;99.90
11043;DHT22;5574;48.786;10.120;2023-04-15T07:17:31;7.20;99.90
11043;DHT22;5574;48.786;10.120;2023-04-15T07:19:57;7.20;99.90
11043;DHT22;5574;48.786;10.120;2023-04-15T07:22:24;7.30;99.90
11043;DHT22;5574;48.786;10.120;2023-04-15T07:24:51;7.40;99.90
11043;DHT22;5574;48.786;10.120;2023-04-15T07:27:19;7.40;99.90
11043;DHT22;5574;48.786;10.120;2023-04-15T07:29:46;7.50;99.90
11043;DHT22;5574;48.786;10.120;2023-04-15T07:32:13;7.60;99.90
11043;DHT22;5574;48.786;10.120;2023-04-15T07:34:39;7.70;99.90
11043;DHT22;5574;48.786;10.120;2023-04-15T07:37:08;7.80;99.90
11043;DHT22;5574;48.786;10.120;2023-04-15T07:39:34;7.90;99.90
11043;DHT22;5574;48.786;10.120;2023-04-15T07:42:02;8.00;99.90
11043;DHT22;5574;48.786;10.120;2023-04-15T07:44:30;8.10;99.90
11043;DHT22;5574;48.786;10.120;2023-04-15T07:46:57;8.20;99.90
11043;DHT22;5574;48.786;10.120;2023-04-15T07:49:24;8.30;99.90
11043;DHT22;5574;48.786;10.120;2023-04-15T07:51:50;8.30;99.90
11043;DHT22;5574;48.786;10.120;2023-04-15T07:54:17;8.30;99.90
11043;DHT22;5574;48.786;10.120;2023-04-15T07:56:44;8.30;99.90
11043;DHT22;5574;48.786;10.120;2023-04-15T07:59:10;8.30;99.90
11043;DHT22;5574;48.786;10.120;2023-04-15T08:01:38;8.40;99.90
11043;DHT22;5574;48.786;10.120;2023-04-15T08:04:05;8.40;99.90
11043;DHT22;5574;48.786;10.120;2023-04-15T08:06:32;8.40;99.90
11043;DHT22;5574;48.786;10.120;2023-04-15T08:08:59;8.40;99.90
11043;DHT22;5574;48.786;10.120;2023-04-15T08:11:26;8.40;99.90
11043;DHT22;5574;48.786;10.120;2023-04-15T08:13:53;8.40;99.90
11043;DHT22;5574;48.786;10.120;2023-04-15T08:16:21;8.50;99.90
11043;DHT22;5574;48.786;10.120;2023-04-15T08:18:51;8.50;99.90
11043;DHT22;5574;48.786;10.120;2023-04-15T08:21:18;8.50;99.90
11043;DHT22;5574;48.786;10.120;2023-04-15T08:23:47;8.60;99.90
11043;DHT22;5574;48.786;10.120;2023-04-15T08:26:14;8.60;99.90
11043;DHT22;5574;48.786;10.120;2023-04-15T08:28:43;8.60;99.90
11043;DHT22;5574;48.786;10.120;2023-04-15T08:31:10;8.60;99.90
11043;DHT22;5574;48.786;10.120;2023-04-15T08:33:37;8.60;99.90
11043;DHT22;5574;48.786;10.120;2023-04-15T08:36:05;8.70;99.90
11043;DHT22;5574;48.786;10.120;2023-04-15T08:38:33;8.70;99.90
11043;DHT22;5574;48.786;10.120;2023-04-15T08:41:03;8.80;99.90
11043;DHT22;5574;48.786;10.120;2023-04-15T08:43:33;8.90;99.90
11043;DHT22;5574;48.786;10.120;2023-04-15T08:46:01;9.00;99.90
11043;DHT22;5574;48.786;10.120;2023-04-15T08:48:32;9.10;99.90
11043;DHT22;5574;48.786;10.120;2023-04-15T08:50:59;9.10;99.90
11043;DHT22;5574;48.786;10.120;2023-04-15T08:53:28;9.20;99.90
11043;DHT22;5574;48.786;10.120;2023-04-15T08:55:56;9.20;99.90
11043;DHT22;5574;48.786;10.120;2023-04-15T08:58:25;9.20;99.90
11043;DHT22;5574;48.786;10.120;2023-04-15T09:00:52;9.30;99.90
11043;DHT22;5574;48.786;10.120;2023-04-15T09:03:19;9.30;99.90
11043;DHT22;5574;48.786;10.120;2023-04-15T09:05:49;9.50;99.90
11043;DHT22;5574;48.786;10.120;2023-04-15T09:08:15;9.50;99.90
11043;DHT22;5574;48.786;10.120;2023-04-15T09:10:43;9.60;99.90
11043;DHT22;5574;48.786;10.120;2023-04-15T09:13:10;9.60;99.90
11043;DHT22;5574;48.786;10.120;2023-04-15T09:15:38;9.70;99.90
11043;DHT22;5574;48.786;10.120;2023-04-15T09:18:04;9.80;99.90
11043;DHT22;5574;48.786;10.120;2023-04-15T09:20:38;9.80;99.90
11043;DHT22;5574;48.786;10.120;2023-04-15T09:23:11;9.90;99.90
11043;DHT22;5574;48.786;10.120;2023-04-15T09:25:39;10.00;99.90
11043;DHT22;5574;48.786;10.120;2023-04-15T09:28:08;10.00;99.90
11043;DHT22;5574;48.786;10.120;2023-04-15T09:30:35;10.10;99.90
11043;DHT22;5574;48.786;10.120;2023-04-15T09:33:03;10.20;99.90
11043;DHT22;5574;48.786;10.120;2023-04-15T09:35:32;10.20;99.90
11043;DHT22;5574;48.786;10.120;2023-04-15T09:38:04;10.20;99.90
11043;DHT22;5574;48.786;10.120;2023-04-15T09:40:33;10.30;99.90
11043;DHT22;5574;48.786;10.120;2023-04-15T09:43:00;10.20;99.90
11043;DHT22;5574;48.786;10.120;2023-04-15T09:45:29;10.30;99.90
11043;DHT22;5574;48.786;10.120;2023-04-15T09:47:56;10.30;99.90
11043;DHT22;5574;48.786;10.120;2023-04-15T09:50:26;10.20;99.90
11043;DHT22;5574;48.786;10.120;2023-04-15T09:52:53;10.20;99.90
11043;DHT22;5574;48.786;10.120;2023-04-15T09:55:21;10.30;99.90
11043;DHT22;5574;48.786;10.120;2023-04-15T09:57:47;10.30;99.90
11043;DHT22;5574;48.786;10.120;2023-04-15T10:00:15;10.40;99.90
11043;DHT22;5574;48.786;10.120;2023-04-15T10:02:43;10.40;99.90
11043;DHT22;5574;48.786;10.120;2023-04-15T10:05:13;10.40;99.90
11043;DHT22;5574;48.786;10.120;2023-04-15T10:07:41;10.40;99.90
11043;DHT22;5574;48.786;10.120;2023-04-15T10:10:09;10.50;99.90
11043;DHT22;5574;48.786;10.120;2023-04-15T10:12:37;10.50;99.90
11043;DHT22;5574;48.786;10.120;2023-04-15T10:15:05;10.50;99.90
11043;DHT22;5574;48.786;10.120;2023-04-15T10:17:35;10.40;99.90
11043;DHT22;5574;48.786;10.120;2023-04-15T10:20:04;10.50;99.90
11043;DHT22;5574;48.786;10.120;2023-04-15T10:22:32;10.50;99.90
11043;DHT22;5574;48.786;10.120;2023-04-15T10:24:59;10.50;99.90
11043;DHT22;5574;48.786;10.120;2023-04-15T10:27:26;10.50;99.90
11043;DHT22;5574;48.786;10.120;2023-04-15T10:29:53;10.50;99.90
11043;DHT22;5574;48.786;10.120;2023-04-15T10:32:20;10.50;99.90
11043;DHT22;5574;48.786;10.120;2023-04-15T10:34:48;10.50;99.90
11043;DHT22;5574;48.786;10.120;2023-04-15T10:37:21;10.50;99.90
11043;DHT22;5574;48.786;10.120;2023-04-15T10:39:48;10.60;99.90
11043;DHT22;5574;48.786;10.120;2023-04-15T10:42:16;10.60;99.90
11043;DHT22;5574;48.786;10.120;2023-04-15T10:44:44;10.70;99.90
11043;DHT22;5574;48.786;10.120;2023-04-15T10:47:15;10.70;99.90
11043;DHT22;5574;48.786;10.120;2023-04-15T10:49:45;10.80;99.90
11043;DHT22;5574;48.786;10.120;2023-04-15T10:52:14;10.80;99.90
11043;DHT22;5574;48.786;10.120;2023-04-15T10:54:43;10.80;99.90
11043;DHT22;5574;48.786;10.120;2023-04-15T10:57:15;10.80;99.60
11043;DHT22;5574;48.786;10.120;2023-04-15T11:00:10;10.70;97.50
11043;DHT22;5574;48.786;10.120;2023-04-15T11:02:42;10.70;96.80
11043;DHT22;5574;48.786;10.120;2023-04-15T11:05:10;10.70;96.80
11043;DHT22;5574;48.786;10.120;2023-04-15T11:07:39;10.70;97.80
11043;DHT22;5574;48.786;10.120;2023-04-15T11:13:20;10.70;97.20
11043;DHT22;5574;48.786;10.120;2023-04-15T11:15:47;10.70;98.20
11043;DHT22;5574;48.786;10.120;2023-04-15T11:18:16;10.70;97.80
11043;DHT22;5574;48.786;10.120;2023-04-15T11:20:44;10.80;97.40
11043;DHT22;5574;48.786;10.120;2023-04-15T11:23:14;10.80;96.80
11043;DHT22;5574;48.786;10.120;2023-04-15T11:25:41;10.90;98.30
11043;DHT22;5574;48.786;10.120;2023-04-15T11:28:08;10.90;95.90
11043;DHT22;5574;48.786;10.120;2023-04-15T11:30:37;10.90;96.60
11043;DHT22;5574;48.786;10.120;2023-04-15T11:33:05;11.00;98.20
11043;DHT22;5574;48.786;10.120;2023-04-15T11:35:33;11.00;97.80
11043;DHT22;5574;48.786;10.120;2023-04-15T11:38:02;11.10;98.00
11043;DHT22;5574;48.786;10.120;2023-04-15T11:40:30;11.20;99.50
11043;DHT22;5574;48.786;10.120;2023-04-15T11:43:04;11.20;98.80
11043;DHT22;5574;48.786;10.120;2023-04-15T11:45:31;11.20;97.80
11043;DHT22;5574;48.786;10.120;2023-04-15T11:48:06;11.30;98.40
11043;DHT22;5574;48.786;10.120;2023-04-15T11:50:33;11.40;99.10
11043;DHT22;5574;48.786;10.120;2023-04-15T11:53:02;11.50;99.00
11043;DHT22;5574;48.786;10.120;2023-04-15T11:55:30;11.50;98.70
11043;DHT22;5574;48.786;10.120;2023-04-15T11:58:08;11.50;99.70
11043;DHT22;5574;48.786;10.120;2023-04-15T12:00:35;11.50;98.70
11043;DHT22;5574;48.786;10.120;2023-04-15T12:03:17;11.50;99.00
11043;DHT22;5574;48.786;10.120;2023-04-15T12:06:13;11.60;96.80
11043;DHT22;5574;48.786;10.120;2023-04-15T12:08:51;11.50;95.70
11043;DHT22;5574;48.786;10.120;2023-04-15T12:11:18;11.50;95.70
11043;DHT22;5574;48.786;10.120;2023-04-15T12:13:47;11.50;96.80
11043;DHT22;5574;48.786;10.120;2023-04-15T12:16:16;11.50;97.10
11043;DHT22;5574;48.786;10.120;2023-04-15T12:18:45;11.50;97.10
11043;DHT22;5574;48.786;10.120;2023-04-15T12:21:13;11.50;95.80
11043;DHT22;5574;48.786;10.120;2023-04-15T12:23:47;11.40;93.00
11043;DHT22;5574;48.786;10.120;2023-04-15T12:26:14;11.30;92.40
11043;DHT22;5574;48.786;10.120;2023-04-15T12:28:41;11.30;93.70
11043;DHT22;5574;48.786;10.120;2023-04-15T12:31:08;11.30;93.80
11043;DHT22;5574;48.786;10.120;2023-04-15T12:33:35;11.20;91.40
11043;DHT22;5574;48.786;10.120;2023-04-15T12:36:04;11.10;91.40
11043;DHT22;5574;48.786;10.120;2023-04-15T12:38:31;11.00;90.90
11043;DHT22;5574;48.786;10.120;2023-04-15T12:40:57;10.90;90.60
11043;DHT22;5574;48.786;10.120;2023-04-15T12:43:24;10.80;90.90
11043;DHT22;5574;48.786;10.120;2023-04-15T12:45:51;10.80;91.30
11043;DHT22;5574;48.786;10.120;2023-04-15T12:48:18;10.70;91.70
11043;DHT22;5574;48.786;10.120;2023-04-15T12:50:45;10.70;91.50
11043;DHT22;5574;48.786;10.120;2023-04-15T12:53:13;10.60;91.50
11043;DHT22;5574;48.786;10.120;2023-04-15T12:55:39;10.60;91.70
11043;DHT22;5574;48.786;10.120;2023-04-15T12:58:06;10.60;92.00
11043;DHT22;5574;48.786;10.120;2023-04-15T13:00:33;10.60;91.80
11043;DHT22;5574;48.786;10.120;2023-04-15T13:03:00;10.60;92.80
11043;DHT22;5574;48.786;10.120;2023-04-15T13:05:27;10.60;93.40
11043;DHT22;5574;48.786;10.120;2023-04-15T13:07:53;10.50;91.40
11043;DHT22;5574;48.786;10.120;2023-04-15T13:10:22;10.50;95.10
11043;DHT22;5574;48.786;10.120;2023-04-15T13:12:49;10.50;97.20
11043;DHT22;5574;48.786;10.120;2023-04-15T13:15:18;10.50;95.80
11043;DHT22;5574;48.786;10.120;2023-04-15T13:17:45;10.50;94.40
11043;DHT22;5574;48.786;10.120;2023-04-15T13:20:12;10.50;94.50
11043;DHT22;5574;48.786;10.120;2023-04-15T13:22:39;10.60;95.80
11043;DHT22;5574;48.786;10.120;2023-04-15T13:25:07;10.50;94.60
11043;DHT22;5574;48.786;10.120;2023-04-15T13:27:35;10.60;94.60
11043;DHT22;5574;48.786;10.120;2023-04-15T13:30:03;10.60;94.60
11043;DHT22;5574;48.786;10.120;2023-04-15T13:32:29;10.60;94.90
11043;DHT22;5574;48.786;10.120;2023-04-15T13:34:56;10.50;94.50
11043;DHT22;5574;48.786;10.120;2023-04-15T13:37:25;10.50;94.60
11043;DHT22;5574;48.786;10.120;2023-04-15T13:39:52;10.40;94.20
11043;DHT22;5574;48.786;10.120;2023-04-15T13:42:19;10.40;94.40
11043;DHT22;5574;48.786;10.120;2023-04-15T13:44:48;10.30;94.00
11043;DHT22;5574;48.786;10.120;2023-04-15T13:47:15;10.40;94.50
11043;DHT22;5574;48.786;10.120;2023-04-15T13:49:42;10.30;94.20
11043;DHT22;5574;48.786;10.120;2023-04-15T13:52:09;10.30;92.30
11043;DHT22;5574;48.786;10.120;2023-04-15T13:54:36;10.20;92.80
11043;DHT22;5574;48.786;10.120;2023-04-15T13:57:04;10.20;92.50
11043;DHT22;5574;48.786;10.120;2023-04-15T13:59:32;10.20;92.20
11043;DHT22;5574;48.786;10.120;2023-04-15T14:02:00;10.20;92.60
11043;DHT22;5574;48.786;10.120;2023-04-15T14:04:26;10.20;92.70
11043;DHT22;5574;48.786;10.120;2023-04-15T14:06:53;10.20;92.40
11043;DHT22;5574;48.786;10.120;2023-04-15T14:09:20;10.20;92.60
11043;DHT22;5574;48.786;10.120;2023-04-15T14:11:48;10.30;92.70
11043;DHT22;5574;48.786;10.120;2023-04-15T14:14:15;10.30;93.30
11043;DHT22;5574;48.786;10.120;2023-04-15T14:16:41;10.30;93.40
11043;DHT22;5574;48.786;10.120;2023-04-15T14:19:09;10.30;93.20
11043;DHT22;5574;48.786;10.120;2023-04-15T14:21:36;10.30;93.40
11043;DHT22;5574;48.786;10.120;2023-04-15T14:24:03;10.30;94.40
11043;DHT22;5574;48.786;10.120;2023-04-15T14:26:30;10.30;94.10
11043;DHT22;5574;48.786;10.120;2023-04-15T14:28:57;10.40;94.70
11043;DHT22;5574;48.786;10.120;2023-04-15T14:31:23;10.40;94.50
11043;DHT22;5574;48.786;10.120;2023-04-15T14:33:50;10.40;94.80
11043;DHT22;5574;48.786;10.120;2023-04-15T14:36:18;10.40;95.30
11043;DHT22;5574;48.786;10.120;2023-04-15T14:38:45;10.40;94.80
11043;DHT22;5574;48.786;10.120;2023-04-15T14:41:11;10.40;95.20
11043;DHT22;5574;48.786;10.120;2023-04-15T14:43:38;10.40;95.10
11043;DHT22;5574;48.786;10.120;2023-04-15T14:46:05;10.30;95.20
11043;DHT22;5574;48.786;10.120;2023-04-15T14:48:32;10.30;95.00
11043;DHT22;5574;48.786;10.120;2023-04-15T14:50:59;10.30;95.30
11043;DHT22;5574;48.786;10.120;2023-04-15T14:53:28;10.30;95.90
11043;DHT22;5574;48.786;10.120;2023-04-15T14:55:54;10.30;95.80
11043;DHT22;5574;48.786;10.120;2023-04-15T14:58:21;10.30;96.10
11043;DHT22;5574;48.786;10.120;2023-04-15T15:00:48;10.30;96.40
11043;DHT22;5574;48.786;10.120;2023-04-15T15:03:14;10.40;96.20
11043;DHT22;5574;48.786;10.120;2023-04-15T15:05:42;10.40;96.40
11043;DHT22;5574;48.786;10.120;2023-04-15T15:08:09;10.40;96.50
11043;DHT22;5574;48.786;10.120;2023-04-15T15:10:38;10.40;96.10
11043;DHT22;5574;48.786;10.120;2023-04-15T15:13:07;10.30;97.30
11043;DHT22;5574;48.786;10.120;2023-04-15T15:15:35;10.20;98.00
11043;DHT22;5574;48.786;10.120;2023-04-15T15:18:02;10.20;98.20
11043;DHT22;5574;48.786;10.120;2023-04-15T15:20:30;10.20;99.20
11043;DHT22;5574;48.786;10.120;2023-04-15T15:22:57;10.00;99.90
11043;DHT22;5574;48.786;10.120;2023-04-15T15:25:24;10.00;99.90
11043;DHT22;5574;48.786;10.120;2023-04-15T15:27:52;9.90;99.90
11043;DHT22;5574;48.786;10.120;2023-04-15T15:30:19;9.90;99.90
11043;DHT22;5574;48.786;10.120;2023-04-15T15:32:46;9.80;99.90
11043;DHT22;5574;48.786;10.120;2023-04-15T15:35:12;9.80;99.90
11043;DHT22;5574;48.786;10.120;2023-04-15T15:37:40;9.70;99.90
11043;DHT22;5574;48.786;10.120;2023-04-15T15:40:08;9.70;99.90
11043;DHT22;5574;48.786;10.120;2023-04-15T15:42:36;9.50;99.90
11043;DHT22;5574;48.786;10.120;2023-04-15T15:45:05;9.50;99.90